Time;durP1;ratioP1;P1;durP2;ratioP2;P2;SDS_P1;SDS_P2;PMS_P1;PMS_P2;Temp;Humidity;BMP_temperature;BMP_pressure;BME280_temperature;BME280_humidity;BME280_pressure;Samples;Min_cycle;Max_cycle;Signal;HPM_P1;HPM_P2
2020/12/09 00:00:57;;;;;;;57.23;30.87;;;;;;;;;;4980206;28;20191;-78
2020/12/09 00:03:23;;;;;;;58.53;31.53;;;;;;;;;;4978999;28;20192;-78
2020/12/09 00:05:50;;;;;;;56.83;30.33;;;;;;;;;;4976601;28;20587;-78
2020/12/09 00:08:16;;;;;;;55.40;30.50;;;;;;;;;;4978692;28;20203;-78
2020/12/09 00:10:42;;;;;;;57.43;31.23;;;;;;;;;;4980501;28;20177;-78
2020/12/09 00:13:08;;;;;;;56.60;32.07;;;;;;;;;;4979122;28;20608;-78
2020/12/09 00:15:34;;;;;;;56.60;31.27;;;;;;;;;;4979348;28;20184;-78
2020/12/09 00:18:00;;;;;;;55.67;29.57;;;;;;;;;;4978919;28;20204;-79
2020/12/09 00:20:26;;;;;;;57.90;30.40;;;;;;;;;;4962494;28;20193;-78
2020/12/09 00:22:52;;;;;;;61.43;31.50;;;;;;;;;;4978642;28;20556;-78
2020/12/09 00:25:19;;;;;;;57.53;30.53;;;;;;;;;;4978628;28;20640;-79
2020/12/09 00:27:45;;;;;;;59.00;30.47;;;;;;;;;;4977701;28;20270;-78
2020/12/09 00:30:11;;;;;;;59.90;32.37;;;;;;;;;;4979286;28;20287;-79
2020/12/09 00:32:37;;;;;;;55.70;30.90;;;;;;;;;;4978884;28;20211;-78
2020/12/09 00:35:05;;;;;;;54.77;30.10;;;;;;;;;;4978696;28;20188;-78
2020/12/09 00:37:33;;;;;;;57.50;30.53;;;;;;;;;;4978157;28;20204;-78
2020/12/09 00:39:59;;;;;;;58.57;30.70;;;;;;;;;;4977263;28;20184;-79
2020/12/09 00:42:25;;;;;;;56.43;30.00;;;;;;;;;;4978583;28;20184;-78
2020/12/09 00:44:51;;;;;;;62.30;32.30;;;;;;;;;;4975499;28;20180;-78
2020/12/09 00:47:18;;;;;;;56.17;30.93;;;;;;;;;;4976156;28;20195;-78
2020/12/09 00:52:30;;;;;;;55.27;30.07;;;;;;;;;;4975817;28;20214;-78
2020/12/09 00:54:56;;;;;;;60.50;31.57;;;;;;;;;;4959934;28;20192;-79
2020/12/09 00:57:23;;;;;;;57.87;29.50;;;;;;;;;;4976197;28;20216;-78
2020/12/09 00:59:49;;;;;;;56.77;29.43;;;;;;;;;;4974899;28;20204;-78
2020/12/09 01:02:15;;;;;;;58.77;31.43;;;;;;;;;;4975829;28;20196;-78
2020/12/09 01:04:42;;;;;;;62.03;31.97;;;;;;;;;;4975749;28;20188;-78
2020/12/09 01:07:09;;;;;;;58.97;31.30;;;;;;;;;;4975248;28;20188;-78
2020/12/09 01:09:36;;;;;;;60.90;30.63;;;;;;;;;;4975879;28;20215;-78
2020/12/09 01:12:03;;;;;;;60.53;32.27;;;;;;;;;;4976123;28;20712;-78
2020/12/09 01:14:29;;;;;;;55.13;31.10;;;;;;;;;;4976448;28;20185;-78
2020/12/09 01:16:55;;;;;;;58.60;31.10;;;;;;;;;;4975466;28;20192;-79
2020/12/09 01:19:23;;;;;;;59.60;29.97;;;;;;;;;;4978351;28;20666;-78
2020/12/09 01:21:49;;;;;;;55.67;30.53;;;;;;;;;;4980278;28;20176;-78
2020/12/09 01:24:15;;;;;;;54.37;30.57;;;;;;;;;;4979669;28;20280;-78
2020/12/09 01:26:43;;;;;;;59.67;30.60;;;;;;;;;;4979818;28;20188;-78
2020/12/09 01:29:09;;;;;;;59.00;30.77;;;;;;;;;;4978734;28;20201;-78
2020/12/09 01:31:35;;;;;;;58.13;31.00;;;;;;;;;;4979978;28;20651;-78
2020/12/09 01:34:01;;;;;;;56.30;30.93;;;;;;;;;;4980043;28;20197;-78
2020/12/09 01:36:27;;;;;;;62.43;31.53;;;;;;;;;;4978764;28;20707;-78
2020/12/09 01:38:53;;;;;;;59.17;32.40;;;;;;;;;;4980270;28;20204;-78
2020/12/09 01:41:23;;;;;;;56.10;30.03;;;;;;;;;;4980772;28;20326;-78
2020/12/09 01:43:50;;;;;;;56.43;31.37;;;;;;;;;;4980449;28;20188;-78
2020/12/09 01:46:17;;;;;;;61.80;31.70;;;;;;;;;;4979938;28;20212;-78
2020/12/09 01:48:44;;;;;;;61.50;32.60;;;;;;;;;;4970429;28;20232;-78
2020/12/09 01:51:10;;;;;;;60.10;31.07;;;;;;;;;;4978954;28;20759;-78
2020/12/09 01:53:36;;;;;;;58.03;30.13;;;;;;;;;;4971483;28;20667;-78
2020/12/09 01:56:03;;;;;;;57.10;29.70;;;;;;;;;;4980385;28;20247;-78
2020/12/09 01:58:29;;;;;;;56.33;30.30;;;;;;;;;;4974002;28;20279;-78
2020/12/09 02:00:55;;;;;;;62.00;31.57;;;;;;;;;;4979493;28;20614;-78
2020/12/09 02:03:21;;;;;;;59.33;31.13;;;;;;;;;;4979360;28;20180;-78
2020/12/09 02:05:48;;;;;;;58.80;30.57;;;;;;;;;;4980183;28;20644;-78
2020/12/09 02:08:14;;;;;;;57.47;29.70;;;;;;;;;;4980611;28;20204;-78
2020/12/09 02:10:41;;;;;;;61.97;32.50;;;;;;;;;;4980294;28;20201;-78
2020/12/09 02:13:07;;;;;;;59.20;31.90;;;;;;;;;;4980237;28;20205;-78
2020/12/09 02:15:33;;;;;;;62.77;32.00;;;;;;;;;;4979525;28;20173;-78
2020/12/09 02:17:59;;;;;;;61.87;32.47;;;;;;;;;;4979189;28;20223;-78
2020/12/09 02:20:25;;;;;;;63.10;33.73;;;;;;;;;;4978051;28;20189;-78
2020/12/09 02:22:52;;;;;;;60.00;31.53;;;;;;;;;;4979470;28;20187;-78
2020/12/09 02:25:19;;;;;;;63.33;32.43;;;;;;;;;;4980158;28;20192;-78
2020/12/09 02:27:45;;;;;;;58.87;30.83;;;;;;;;;;4978256;28;20212;-79
2020/12/09 02:30:11;;;;;;;67.57;33.77;;;;;;;;;;4977276;28;20620;-78
2020/12/09 02:32:37;;;;;;;62.40;32.20;;;;;;;;;;4980449;28;20267;-78
2020/12/09 02:35:04;;;;;;;64.80;32.63;;;;;;;;;;4979954;28;20552;-79
2020/12/09 02:37:34;;;;;;;66.77;33.63;;;;;;;;;;4979415;28;20192;-78
2020/12/09 02:40:01;;;;;;;63.07;32.80;;;;;;;;;;4978201;28;20235;-78
2020/12/09 02:42:27;;;;;;;66.63;32.13;;;;;;;;;;4979071;28;20639;-78
2020/12/09 02:44:53;;;;;;;67.00;34.13;;;;;;;;;;4978716;28;20234;-78
2020/12/09 02:47:19;;;;;;;67.20;35.07;;;;;;;;;;4980710;28;20209;-78
2020/12/09 02:49:45;;;;;;;68.80;34.97;;;;;;;;;;4978245;28;20184;-79
2020/12/09 02:52:11;;;;;;;68.43;33.77;;;;;;;;;;4980636;28;20191;-78
2020/12/09 02:54:38;;;;;;;59.73;31.63;;;;;;;;;;4971677;28;20200;-78
2020/12/09 02:57:07;;;;;;;63.90;32.33;;;;;;;;;;4979668;28;20180;-78
2020/12/09 02:59:33;;;;;;;66.47;33.53;;;;;;;;;;4957481;28;20204;-78
2020/12/09 03:01:59;;;;;;;65.83;32.50;;;;;;;;;;4943927;28;20210;-79
2020/12/09 03:04:26;;;;;;;67.97;32.90;;;;;;;;;;4976643;28;20176;-78
2020/12/09 03:06:52;;;;;;;72.63;33.87;;;;;;;;;;4977137;28;20216;-78
2020/12/09 03:09:18;;;;;;;66.47;33.87;;;;;;;;;;4979259;28;20216;-78
2020/12/09 03:11:44;;;;;;;68.03;34.50;;;;;;;;;;4979157;28;20652;-78
2020/12/09 03:14:11;;;;;;;75.10;35.03;;;;;;;;;;4979595;28;20355;-78
2020/12/09 03:16:37;;;;;;;71.40;35.30;;;;;;;;;;4978384;28;20655;-78
2020/12/09 03:19:03;;;;;;;75.70;34.87;;;;;;;;;;4978625;28;20224;-78
2020/12/09 03:21:30;;;;;;;80.07;36.43;;;;;;;;;;4979366;28;20180;-78
2020/12/09 03:23:57;;;;;;;74.00;35.27;;;;;;;;;;4979873;28;20185;-78
2020/12/09 03:26:26;;;;;;;71.87;34.87;;;;;;;;;;4980002;28;20196;-78
2020/12/09 03:28:52;;;;;;;66.40;33.73;;;;;;;;;;4979703;28;20643;-78
2020/12/09 03:31:18;;;;;;;67.27;34.83;;;;;;;;;;4977971;28;20181;-78
2020/12/09 03:33:45;;;;;;;73.93;35.73;;;;;;;;;;4979524;28;20204;-78
2020/12/09 03:36:11;;;;;;;79.00;35.23;;;;;;;;;;4980065;28;20184;-78
2020/12/09 03:38:38;;;;;;;69.67;34.43;;;;;;;;;;4979474;28;20255;-78
2020/12/09 03:41:04;;;;;;;73.67;36.03;;;;;;;;;;4979704;28;20191;-78
2020/12/09 03:43:30;;;;;;;72.67;35.07;;;;;;;;;;4972916;28;20181;-78
2020/12/09 03:45:56;;;;;;;69.40;33.13;;;;;;;;;;4979111;28;20243;-78
2020/12/09 03:48:23;;;;;;;65.90;32.77;;;;;;;;;;4980023;28;20204;-78
2020/12/09 03:50:49;;;;;;;69.33;33.93;;;;;;;;;;4979491;28;20698;-78
2020/12/09 03:53:16;;;;;;;67.40;34.43;;;;;;;;;;4973372;28;20228;-78
2020/12/09 03:55:42;;;;;;;71.40;35.47;;;;;;;;;;4976600;28;20208;-78
2020/12/09 03:58:08;;;;;;;73.77;35.67;;;;;;;;;;4978396;28;20702;-78
2020/12/09 04:00:35;;;;;;;71.40;35.90;;;;;;;;;;4975095;28;20185;-78
2020/12/09 04:03:01;;;;;;;68.27;34.17;;;;;;;;;;4979282;28;20184;-79
2020/12/09 04:05:27;;;;;;;70.43;34.20;;;;;;;;;;4978101;28;20188;-78
2020/12/09 04:07:53;;;;;;;70.90;34.70;;;;;;;;;;4978907;28;20204;-78
2020/12/09 04:10:19;;;;;;;71.63;35.33;;;;;;;;;;4977993;28;20643;-78
2020/12/09 04:12:45;;;;;;;70.70;33.97;;;;;;;;;;4979208;28;20196;-78
2020/12/09 04:15:11;;;;;;;70.33;34.60;;;;;;;;;;4979056;28;20181;-78
2020/12/09 04:17:38;;;;;;;72.37;34.43;;;;;;;;;;4979167;28;20664;-79
2020/12/09 04:20:05;;;;;;;65.77;33.30;;;;;;;;;;4979785;28;20216;-79
2020/12/09 04:22:31;;;;;;;73.83;34.83;;;;;;;;;;4980125;28;20191;-78
2020/12/09 04:24:57;;;;;;;74.93;35.73;;;;;;;;;;4979116;28;20189;-78
2020/12/09 04:27:24;;;;;;;69.50;34.93;;;;;;;;;;4978241;28;20682;-79
2020/12/09 04:29:50;;;;;;;70.57;34.53;;;;;;;;;;4978781;28;20194;-78
2020/12/09 04:32:17;;;;;;;73.03;35.37;;;;;;;;;;4978190;28;20658;-79
2020/12/09 04:34:43;;;;;;;70.47;34.50;;;;;;;;;;4978958;28;20612;-79
2020/12/09 04:37:10;;;;;;;67.23;34.97;;;;;;;;;;4979994;28;20172;-78
2020/12/09 04:39:36;;;;;;;72.50;34.93;;;;;;;;;;4976940;28;20263;-79
2020/12/09 04:42:02;;;;;;;63.10;32.10;;;;;;;;;;4975582;28;20173;-79
2020/12/09 04:44:28;;;;;;;64.80;32.83;;;;;;;;;;4978030;28;20187;-78
2020/12/09 04:47:01;;;;;;;66.57;33.27;;;;;;;;;;4980626;28;20581;-79
2020/12/09 04:49:38;;;;;;;61.63;30.93;;;;;;;;;;4977356;28;20191;-78
2020/12/09 04:52:15;;;;;;;69.73;33.10;;;;;;;;;;4977768;28;20719;-79
2020/12/09 04:54:45;;;;;;;62.37;31.40;;;;;;;;;;4970799;28;20234;-79
2020/12/09 04:57:27;;;;;;;59.77;31.30;;;;;;;;;;4965383;28;20192;-79
2020/12/09 05:00:02;;;;;;;59.43;30.53;;;;;;;;;;4994197;23;20706;-78
2020/12/09 05:02:42;;;;;;;59.47;29.70;;;;;;;;;;4962630;28;20176;-78
2020/12/09 05:05:10;;;;;;;60.87;30.50;;;;;;;;;;4960278;28;20637;-81
2020/12/09 05:07:37;;;;;;;57.93;30.30;;;;;;;;;;4967412;28;20185;-79
2020/12/09 05:10:12;;;;;;;58.53;30.63;;;;;;;;;;4969855;28;20247;-78
2020/12/09 05:12:43;;;;;;;53.87;29.50;;;;;;;;;;4961450;28;20201;-77
2020/12/09 05:15:16;;;;;;;57.00;29.93;;;;;;;;;;4962408;28;20173;-78
2020/12/09 05:17:50;;;;;;;55.83;28.40;;;;;;;;;;4961620;28;20177;-77
2020/12/09 05:20:34;;;;;;;54.00;29.47;;;;;;;;;;4956193;28;20600;-78
2020/12/09 05:23:01;;;;;;;49.37;27.23;;;;;;;;;;4943146;29;20213;-78
2020/12/09 05:25:32;;;;;;;55.87;29.57;;;;;;;;;;4951924;28;20189;-78
2020/12/09 05:27:58;;;;;;;53.47;28.60;;;;;;;;;;4960329;29;20204;-77
2020/12/09 05:30:44;;;;;;;53.90;27.80;;;;;;;;;;4944799;29;20260;-77
2020/12/09 05:33:13;;;;;;;56.00;29.43;;;;;;;;;;4961913;28;20679;-79
2020/12/09 05:35:40;;;;;;;52.03;27.27;;;;;;;;;;4960757;28;20177;-78
2020/12/09 05:38:14;;;;;;;52.13;29.53;;;;;;;;;;4965831;28;20181;-78
2020/12/09 05:40:43;;;;;;;54.73;29.20;;;;;;;;;;4971377;28;20205;-78
2020/12/09 05:43:11;;;;;;;57.30;30.80;;;;;;;;;;4960318;28;20236;-78
2020/12/09 05:45:37;;;;;;;58.23;30.17;;;;;;;;;;4958512;29;20247;-78
2020/12/09 05:48:12;;;;;;;55.73;30.50;;;;;;;;;;4959440;28;20183;-78
2020/12/09 05:50:45;;;;;;;65.07;32.83;;;;;;;;;;4957859;29;20208;-78
2020/12/09 05:53:15;;;;;;;66.23;32.67;;;;;;;;;;4962308;28;20233;-81
2020/12/09 05:55:42;;;;;;;64.23;33.47;;;;;;;;;;4966802;28;20177;-81
2020/12/09 05:58:18;;;;;;;62.80;31.77;;;;;;;;;;4968445;28;20201;-80
2020/12/09 06:01:02;;;;;;;63.80;32.87;;;;;;;;;;4971497;28;20271;-80
2020/12/09 06:03:28;;;;;;;62.73;32.33;;;;;;;;;;4972468;28;20193;-82
2020/12/09 06:06:08;;;;;;;61.67;31.93;;;;;;;;;;4970607;28;20666;-82
2020/12/09 06:08:40;;;;;;;63.30;31.63;;;;;;;;;;4970950;28;20702;-81
2020/12/09 06:11:07;;;;;;;70.43;33.27;;;;;;;;;;4968846;28;20220;-82
2020/12/09 06:13:34;;;;;;;67.97;32.80;;;;;;;;;;4973218;28;20205;-82
2020/12/09 06:16:01;;;;;;;70.93;34.33;;;;;;;;;;4972707;28;20187;-81
2020/12/09 06:18:28;;;;;;;69.97;34.23;;;;;;;;;;4971698;28;20605;-81
2020/12/09 06:20:54;;;;;;;68.00;33.00;;;;;;;;;;4972470;28;20193;-80
2020/12/09 06:23:20;;;;;;;72.37;34.37;;;;;;;;;;4973998;28;20173;-80
2020/12/09 06:25:47;;;;;;;73.47;32.67;;;;;;;;;;4973327;28;20185;-81
2020/12/09 06:28:34;;;;;;;76.73;36.20;;;;;;;;;;4970662;28;20181;-82
2020/12/09 06:31:11;;;;;;;66.83;33.07;;;;;;;;;;4969949;29;20204;-80
2020/12/09 06:33:38;;;;;;;72.23;33.80;;;;;;;;;;4972124;28;20197;-80
2020/12/09 06:36:23;;;;;;;69.83;34.60;;;;;;;;;;4970925;28;20665;-81
2020/12/09 06:39:07;;;;;;;64.63;32.33;;;;;;;;;;4970149;28;20173;-81
2020/12/09 06:41:34;;;;;;;70.50;33.90;;;;;;;;;;4970710;28;20205;-81
2020/12/09 06:44:10;;;;;;;67.70;33.50;;;;;;;;;;4970608;28;20184;-81
2020/12/09 06:46:38;;;;;;;62.00;32.23;;;;;;;;;;4968008;28;20177;-79
2020/12/09 06:49:15;;;;;;;;;;;;;;;;;;;;;
2020/12/09 06:51:41;;;;;;;66.10;32.93;;;;;;;;;;4968175;29;20246;-79
2020/12/09 06:54:11;;;;;;;64.67;32.40;;;;;;;;;;4968282;28;20201;-80
2020/12/09 06:56:41;;;;;;;70.03;32.13;;;;;;;;;;4970328;28;20212;-81
2020/12/09 06:59:26;;;;;;;73.00;33.10;;;;;;;;;;4970794;28;20181;-81
2020/12/09 07:02:00;;;;;;;71.97;33.90;;;;;;;;;;4970889;28;20169;-80
2020/12/09 07:04:46;;;;;;;76.20;35.30;;;;;;;;;;4969912;28;20169;-80
2020/12/09 07:07:32;;;;;;;71.43;34.23;;;;;;;;;;4966911;28;20187;-80
2020/12/09 07:10:02;;;;;;;74.67;32.47;;;;;;;;;;4968123;29;20228;-79
2020/12/09 07:12:28;;;;;;;66.03;33.57;;;;;;;;;;4965590;28;20232;-79
2020/12/09 07:14:56;;;;;;;65.10;32.80;;;;;;;;;;4966821;28;20169;-80
2020/12/09 07:17:26;;;;;;;68.03;32.83;;;;;;;;;;4966927;28;20183;-79
2020/12/09 07:19:53;;;;;;;61.90;31.43;;;;;;;;;;4965668;28;20193;-80
2020/12/09 07:22:22;;;;;;;61.33;32.03;;;;;;;;;;4966023;28;20181;-80
2020/12/09 07:25:07;;;;;;;61.17;30.00;;;;;;;;;;4965518;28;20260;-81
2020/12/09 07:27:35;;;;;;;56.67;30.10;;;;;;;;;;4963811;28;20184;-81
2020/12/09 07:30:07;;;;;;;58.23;29.53;;;;;;;;;;4965189;28;20255;-80
2020/12/09 07:32:33;;;;;;;61.20;30.93;;;;;;;;;;4963339;28;20189;-81
2020/12/09 07:35:11;;;;;;;60.77;29.63;;;;;;;;;;4962865;28;20174;-79
2020/12/09 07:37:42;;;;;;;61.00;29.83;;;;;;;;;;4964163;28;20643;-80
2020/12/09 07:40:27;;;;;;;;;;;;;;;;;;;;;
2020/12/09 07:43:13;;;;;;;69.97;31.33;;;;;;;;;;4964551;28;20293;-80
2020/12/09 07:45:44;;;;;;;56.30;29.00;;;;;;;;;;4965563;28;20656;-79
2020/12/09 07:48:14;;;;;;;60.10;29.43;;;;;;;;;;4962611;28;20519;-80
2020/12/09 07:50:41;;;;;;;59.17;30.10;;;;;;;;;;4965313;28;20256;-79
2020/12/09 07:53:11;;;;;;;62.40;30.17;;;;;;;;;;4965336;28;20604;-80
2020/12/09 07:55:37;;;;;;;60.30;30.70;;;;;;;;;;4966347;28;20173;-80
2020/12/09 07:58:08;;;;;;;63.73;30.30;;;;;;;;;;4965583;28;20174;-79
2020/12/09 08:00:40;;;;;;;62.43;32.40;;;;;;;;;;4965327;28;20216;-81
2020/12/09 08:03:07;;;;;;;58.63;30.07;;;;;;;;;;4963053;28;20181;-80
2020/12/09 08:05:37;;;;;;;60.13;30.53;;;;;;;;;;4965141;28;20204;-80
2020/12/09 08:08:05;;;;;;;58.50;29.67;;;;;;;;;;4966634;28;20196;-80
2020/12/09 08:10:35;;;;;;;53.90;27.70;;;;;;;;;;4964945;28;20251;-79
2020/12/09 08:13:07;;;;;;;59.17;30.23;;;;;;;;;;4967371;28;20208;-80
2020/12/09 08:15:35;;;;;;;57.60;29.17;;;;;;;;;;4964955;28;20232;-79
2020/12/09 08:18:01;;;;;;;60.97;30.37;;;;;;;;;;4966702;28;20660;-80
2020/12/09 08:20:27;;;;;;;59.10;30.40;;;;;;;;;;4966350;28;20200;-80
2020/12/09 08:22:55;;;;;;;63.20;30.77;;;;;;;;;;4968156;28;20185;-80
2020/12/09 08:25:22;;;;;;;68.43;32.20;;;;;;;;;;4967528;28;20181;-80
2020/12/09 08:27:48;;;;;;;69.90;33.37;;;;;;;;;;4966579;28;20185;-81
2020/12/09 08:30:22;;;;;;;64.17;31.63;;;;;;;;;;4965049;28;20608;-80
2020/12/09 08:32:54;;;;;;;69.97;32.63;;;;;;;;;;4966069;28;20201;-79
2020/12/09 08:35:20;;;;;;;62.00;30.43;;;;;;;;;;4965546;28;20177;-79
2020/12/09 08:37:47;;;;;;;61.43;31.50;;;;;;;;;;4964552;28;20177;-78
2020/12/09 08:40:14;;;;;;;58.87;30.53;;;;;;;;;;4964095;28;20202;-78
2020/12/09 08:42:50;;;;;;;68.67;32.40;;;;;;;;;;4968930;28;20268;-79
2020/12/09 08:45:16;;;;;;;65.17;32.70;;;;;;;;;;4965603;28;20596;-80
2020/12/09 08:47:42;;;;;;;65.40;30.73;;;;;;;;;;4965452;28;20204;-79
2020/12/09 08:50:08;;;;;;;61.33;30.37;;;;;;;;;;4968216;28;20213;-80
2020/12/09 08:52:34;;;;;;;59.57;30.20;;;;;;;;;;4965825;28;20248;-79
2020/12/09 08:55:01;;;;;;;60.40;28.97;;;;;;;;;;4965762;29;20228;-79
2020/12/09 08:57:27;;;;;;;60.70;29.63;;;;;;;;;;4963905;28;20177;-80
2020/12/09 08:59:54;;;;;;;53.70;28.80;;;;;;;;;;4964821;28;20217;-80
2020/12/09 09:02:21;;;;;;;62.60;29.93;;;;;;;;;;4965397;28;20185;-80
2020/12/09 09:04:47;;;;;;;63.37;30.83;;;;;;;;;;4965557;28;20613;-80
2020/12/09 09:07:14;;;;;;;63.73;30.87;;;;;;;;;;4966581;28;20703;-82
2020/12/09 09:09:40;;;;;;;65.07;29.93;;;;;;;;;;4965848;28;20212;-81
2020/12/09 09:12:06;;;;;;;64.00;31.13;;;;;;;;;;4967115;28;20173;-80
2020/12/09 09:14:44;;;;;;;63.60;30.67;;;;;;;;;;4964804;28;20577;-81
2020/12/09 09:17:13;;;;;;;75.47;32.90;;;;;;;;;;4966342;28;20177;-81
2020/12/09 09:19:39;;;;;;;68.50;31.37;;;;;;;;;;4965940;28;20569;-81
2020/12/09 09:22:05;;;;;;;68.20;30.20;;;;;;;;;;4962982;28;20211;-79
2020/12/09 09:24:31;;;;;;;64.97;28.90;;;;;;;;;;4965598;28;20191;-80
2020/12/09 09:26:57;;;;;;;62.10;29.53;;;;;;;;;;4965756;28;20210;-82
2020/12/09 09:29:24;;;;;;;65.10;29.37;;;;;;;;;;4963981;28;20201;-80
2020/12/09 09:31:50;;;;;;;69.03;30.67;;;;;;;;;;4962953;28;20177;-79
2020/12/09 09:34:16;;;;;;;61.33;28.63;;;;;;;;;;4964645;28;20204;-81
2020/12/09 09:36:44;;;;;;;62.50;28.80;;;;;;;;;;4964346;28;20652;-81
2020/12/09 09:39:10;;;;;;;57.10;27.37;;;;;;;;;;4964194;28;20174;-79
2020/12/09 09:41:39;;;;;;;56.77;26.73;;;;;;;;;;4968819;28;20539;-80
2020/12/09 09:44:06;;;;;;;60.60;28.37;;;;;;;;;;4956043;29;20204;-78
2020/12/09 09:46:32;;;;;;;58.00;28.43;;;;;;;;;;4966867;28;20340;-79
2020/12/09 09:48:59;;;;;;;46.87;23.00;;;;;;;;;;4965494;28;20184;-78
2020/12/09 09:51:25;;;;;;;45.90;23.30;;;;;;;;;;4966964;28;20208;-79
2020/12/09 09:53:51;;;;;;;46.47;23.07;;;;;;;;;;4968690;28;20197;-82
2020/12/09 09:56:17;;;;;;;43.20;23.57;;;;;;;;;;4965765;29;20237;-79
2020/12/09 09:58:43;;;;;;;40.80;21.10;;;;;;;;;;4968113;28;20177;-78
2020/12/09 10:01:09;;;;;;;39.87;21.57;;;;;;;;;;4969478;28;20196;-80
2020/12/09 10:03:35;;;;;;;37.23;21.33;;;;;;;;;;4969715;28;20210;-80
2020/12/09 10:06:02;;;;;;;50.70;21.10;;;;;;;;;;4968307;28;20189;-80
2020/12/09 10:08:29;;;;;;;32.50;19.47;;;;;;;;;;4968888;28;20201;-80
2020/12/09 10:10:56;;;;;;;35.83;20.63;;;;;;;;;;4968394;28;20256;-80
2020/12/09 10:13:22;;;;;;;33.97;19.37;;;;;;;;;;4968412;28;20197;-80
2020/12/09 10:15:48;;;;;;;33.40;19.13;;;;;;;;;;4965478;28;20184;-80
2020/12/09 10:18:14;;;;;;;33.97;20.03;;;;;;;;;;4966914;28;20217;-80
2020/12/09 10:20:41;;;;;;;28.97;17.63;;;;;;;;;;4967983;28;20201;-80
2020/12/09 10:23:07;;;;;;;26.53;17.47;;;;;;;;;;4965159;28;20540;-79
2020/12/09 10:25:33;;;;;;;25.33;17.37;;;;;;;;;;4966918;28;20173;-80
2020/12/09 10:27:59;;;;;;;28.93;17.50;;;;;;;;;;4965417;28;20216;-80
2020/12/09 10:30:26;;;;;;;29.80;18.63;;;;;;;;;;4966692;28;20204;-80
2020/12/09 10:32:52;;;;;;;35.77;18.90;;;;;;;;;;4964939;28;20235;-80
2020/12/09 10:35:18;;;;;;;31.10;19.20;;;;;;;;;;4966696;28;20184;-80
2020/12/09 10:37:54;;;;;;;;;;;;;;;;;;;;;
2020/12/09 10:40:20;;;;;;;31.77;19.60;;;;;;;;;;4971571;29;20227;-80
2020/12/09 10:42:46;;;;;;;34.13;19.73;;;;;;;;;;4967711;28;20617;-82
2020/12/09 10:45:12;;;;;;;30.13;17.00;;;;;;;;;;4967309;28;20268;-81
2020/12/09 10:47:38;;;;;;;24.93;16.47;;;;;;;;;;4966111;28;20554;-81
2020/12/09 10:50:08;;;;;;;31.13;17.50;;;;;;;;;;4966639;28;20296;-80
2020/12/09 10:52:34;;;;;;;33.13;17.87;;;;;;;;;;4964292;28;20185;-80
2020/12/09 10:55:10;;;;;;;31.33;17.60;;;;;;;;;;4964635;29;20184;-81
2020/12/09 10:57:36;;;;;;;26.07;16.67;;;;;;;;;;4967634;28;20546;-82
2020/12/09 11:00:04;;;;;;;27.13;17.40;;;;;;;;;;4980963;23;20204;-78
2020/12/09 11:02:30;;;;;;;28.53;16.13;;;;;;;;;;4977645;28;20212;-78
2020/12/09 11:04:56;;;;;;;30.03;18.57;;;;;;;;;;4976298;28;20191;-79
2020/12/09 11:07:23;;;;;;;25.33;16.73;;;;;;;;;;4977579;28;20587;-79
2020/12/09 11:09:49;;;;;;;29.03;17.60;;;;;;;;;;4974397;28;20595;-78
2020/12/09 11:12:16;;;;;;;25.43;16.97;;;;;;;;;;4957132;29;20604;-79
2020/12/09 11:14:42;;;;;;;25.37;16.70;;;;;;;;;;4957757;29;20209;-78
2020/12/09 11:17:08;;;;;;;29.07;16.83;;;;;;;;;;4957775;29;20180;-79
2020/12/09 11:19:34;;;;;;;70.67;35.07;;;;;;;;;;4957603;28;20595;-79
2020/12/09 11:22:00;;;;;;;25.23;15.93;;;;;;;;;;4957489;28;20220;-78
2020/12/09 11:24:26;;;;;;;32.67;19.77;;;;;;;;;;4937203;29;20190;-79
2020/12/09 11:26:52;;;;;;;25.07;15.27;;;;;;;;;;4956505;29;20256;-79
2020/12/09 11:29:18;;;;;;;28.97;17.23;;;;;;;;;;4957609;28;20211;-79
2020/12/09 11:31:45;;;;;;;28.80;17.23;;;;;;;;;;4957597;28;20284;-79
2020/12/09 11:34:11;;;;;;;25.30;15.93;;;;;;;;;;4956212;29;20337;-79
2020/12/09 11:36:37;;;;;;;23.23;15.10;;;;;;;;;;4957679;28;20170;-78
2020/12/09 11:39:03;;;;;;;20.33;14.33;;;;;;;;;;4957604;28;20176;-79
2020/12/09 11:41:30;;;;;;;17.80;13.93;;;;;;;;;;4957902;28;20248;-79
2020/12/09 11:43:56;;;;;;;18.43;13.93;;;;;;;;;;4957937;28;20181;-79
2020/12/09 11:46:25;;;;;;;17.43;12.97;;;;;;;;;;4957100;28;20257;-78
2020/12/09 11:48:52;;;;;;;18.30;13.77;;;;;;;;;;4957857;28;20204;-79
2020/12/09 11:51:19;;;;;;;15.47;12.77;;;;;;;;;;4958249;28;20204;-79
2020/12/09 11:53:45;;;;;;;18.03;13.53;;;;;;;;;;4957557;28;20204;-79
2020/12/09 11:56:11;;;;;;;19.50;13.40;;;;;;;;;;4956216;29;20200;-79
2020/12/09 11:58:38;;;;;;;14.93;12.23;;;;;;;;;;4957802;28;20181;-78
2020/12/09 12:01:08;;;;;;;17.73;12.80;;;;;;;;;;4957540;28;20260;-79
2020/12/09 12:03:35;;;;;;;15.17;12.27;;;;;;;;;;4956617;28;20235;-79
2020/12/09 12:06:01;;;;;;;16.17;12.13;;;;;;;;;;4956005;29;20292;-79
2020/12/09 12:08:27;;;;;;;16.07;12.83;;;;;;;;;;4957585;29;20220;-78
2020/12/09 12:10:53;;;;;;;17.47;12.57;;;;;;;;;;4955849;28;20264;-78
2020/12/09 12:13:19;;;;;;;15.00;11.60;;;;;;;;;;4951863;28;20205;-78
2020/12/09 12:15:46;;;;;;;15.30;12.03;;;;;;;;;;4948581;29;20195;-78
2020/12/09 12:18:12;;;;;;;17.90;12.33;;;;;;;;;;4956898;28;20181;-78
2020/12/09 12:20:38;;;;;;;16.63;12.97;;;;;;;;;;4956767;28;20201;-78
2020/12/09 12:23:05;;;;;;;14.23;11.73;;;;;;;;;;4957184;28;20264;-79
2020/12/09 12:25:31;;;;;;;14.83;11.93;;;;;;;;;;4932967;29;20193;-79
2020/12/09 12:27:57;;;;;;;14.57;11.37;;;;;;;;;;4951043;29;20185;-78
2020/12/09 12:30:23;;;;;;;13.03;11.67;;;;;;;;;;4956950;28;20283;-78
2020/12/09 12:32:49;;;;;;;14.37;12.33;;;;;;;;;;4956789;28;20283;-78
2020/12/09 12:35:15;;;;;;;13.90;12.07;;;;;;;;;;4957519;28;20204;-78
2020/12/09 12:37:41;;;;;;;15.70;12.50;;;;;;;;;;4948946;28;20184;-79
2020/12/09 12:40:07;;;;;;;16.20;11.97;;;;;;;;;;4953469;28;20280;-78
2020/12/09 12:42:33;;;;;;;17.37;12.03;;;;;;;;;;4957798;28;20181;-78
2020/12/09 12:44:59;;;;;;;14.37;11.53;;;;;;;;;;4957521;28;20188;-79
2020/12/09 12:47:26;;;;;;;14.27;12.00;;;;;;;;;;4957684;28;20185;-78
2020/12/09 12:49:52;;;;;;;20.13;13.77;;;;;;;;;;4955794;28;20555;-79
2020/12/09 12:52:18;;;;;;;15.13;12.00;;;;;;;;;;4957008;29;20177;-79
2020/12/09 12:54:44;;;;;;;17.47;13.43;;;;;;;;;;4959653;28;20204;-79
2020/12/09 12:57:10;;;;;;;15.97;12.97;;;;;;;;;;4960020;28;20174;-79
2020/12/09 12:59:36;;;;;;;17.37;12.93;;;;;;;;;;4957738;28;20177;-79
2020/12/09 13:02:03;;;;;;;16.27;12.90;;;;;;;;;;4955641;28;20240;-79
2020/12/09 13:04:29;;;;;;;16.27;12.70;;;;;;;;;;4938486;29;20162;-79
2020/12/09 13:06:55;;;;;;;22.20;12.70;;;;;;;;;;4949529;29;20240;-79
2020/12/09 13:09:22;;;;;;;16.17;12.60;;;;;;;;;;4943356;29;20533;-79
2020/12/09 13:11:48;;;;;;;14.70;12.20;;;;;;;;;;4956826;28;20208;-79
2020/12/09 13:14:15;;;;;;;13.90;12.37;;;;;;;;;;4956576;28;20208;-79
2020/12/09 13:16:45;;;;;;;16.13;12.40;;;;;;;;;;4946766;28;20174;-79
2020/12/09 13:19:11;;;;;;;14.43;11.80;;;;;;;;;;4960334;28;20256;-79
2020/12/09 13:21:37;;;;;;;15.10;12.43;;;;;;;;;;4945379;29;20205;-79
2020/12/09 13:24:03;;;;;;;12.77;11.47;;;;;;;;;;4959037;29;20268;-78
2020/12/09 13:26:29;;;;;;;16.23;11.77;;;;;;;;;;4959941;28;20193;-79
2020/12/09 13:28:55;;;;;;;12.43;10.20;;;;;;;;;;4960210;28;20184;-79
2020/12/09 13:31:21;;;;;;;11.83;10.40;;;;;;;;;;4960378;28;20679;-79
2020/12/09 13:33:47;;;;;;;11.77;10.20;;;;;;;;;;4959528;28;20597;-78
2020/12/09 13:36:14;;;;;;;14.03;10.77;;;;;;;;;;4958851;29;20220;-79
2020/12/09 13:38:40;;;;;;;13.83;11.17;;;;;;;;;;4957672;28;20173;-77
2020/12/09 13:41:06;;;;;;;11.97;10.63;;;;;;;;;;4955799;29;20262;-78
2020/12/09 13:43:32;;;;;;;11.37;9.43;;;;;;;;;;4955534;29;20177;-77
2020/12/09 13:45:58;;;;;;;11.40;8.87;;;;;;;;;;4957000;28;20199;-76
2020/12/09 13:48:24;;;;;;;10.50;9.10;;;;;;;;;;4957775;28;20181;-77
2020/12/09 13:50:51;;;;;;;9.30;8.40;;;;;;;;;;4957401;28;20197;-76
2020/12/09 13:53:17;;;;;;;8.60;7.80;;;;;;;;;;4957576;28;20244;-77
2020/12/09 13:55:43;;;;;;;8.97;8.07;;;;;;;;;;4957259;28;20675;-77
2020/12/09 13:58:09;;;;;;;8.40;7.60;;;;;;;;;;4957582;28;20185;-77
2020/12/09 14:00:35;;;;;;;7.97;7.27;;;;;;;;;;4955820;28;20271;-77
2020/12/09 14:03:01;;;;;;;7.77;6.93;;;;;;;;;;4957038;28;20264;-76
2020/12/09 14:05:27;;;;;;;8.20;7.37;;;;;;;;;;4956628;28;20707;-77
2020/12/09 14:07:53;;;;;;;7.50;6.80;;;;;;;;;;4956451;28;20268;-77
2020/12/09 14:10:20;;;;;;;7.83;7.13;;;;;;;;;;4955351;29;20303;-77
2020/12/09 14:12:46;;;;;;;6.40;5.80;;;;;;;;;;4957029;28;20186;-77
2020/12/09 14:15:12;;;;;;;6.87;6.17;;;;;;;;;;4956319;29;20173;-77
2020/12/09 14:17:38;;;;;;;5.87;5.37;;;;;;;;;;4956819;28;20268;-77
2020/12/09 14:20:08;;;;;;;6.13;5.63;;;;;;;;;;4957226;28;20197;-77
2020/12/09 14:22:35;;;;;;;6.70;5.87;;;;;;;;;;4956661;28;20327;-77
2020/12/09 14:25:01;;;;;;;5.77;5.20;;;;;;;;;;4955878;28;20182;-76
2020/12/09 14:27:27;;;;;;;7.00;6.40;;;;;;;;;;4956112;28;20174;-76